Welch, Minnesota
Current Conditions -  °F | °C
As of 12:10 PM on Saturday 25 Oct 2014 (Local Time) from KRGK Reporting Station
Clear Clear  
Wind Chill: 61°   Ceiling: Unl
Heat Index: 61°   Visibility: 10mi
Dew Point: 30°   Wind: 9mph
Humidity: 31%   Direction: 310°NW
Pressure: 30.02"   Gusts: 20mph
Location:  44.57°N, 92.74°W
Report Text: KRGK 251710Z AUTO 31008G17KT 10SM CLR 16/M01 A3002 RMK AO2
Loading
Personal Weather Stations






























Interactive Weather Map
Tropical Storm Tracking
New forecast layout! Learn more

10-Day Weather Forecast

Advertisements
Track Severe Weather on mobile